createdAt,value
2022-11-30T00:01:11.443Z,8.42
2022-11-30T00:03:14.381Z,8.43
2022-11-30T00:05:17.411Z,8.37
2022-11-30T00:07:20.333Z,8.35
2022-11-30T00:09:24.550Z,8.24
2022-11-30T00:11:29.664Z,8.31
2022-11-30T00:13:32.435Z,8.28
2022-11-30T00:15:35.242Z,8.31
2022-11-30T00:17:38.072Z,8.33
2022-11-30T00:19:40.860Z,8.35
2022-11-30T00:21:43.641Z,8.32
2022-11-30T00:23:47.742Z,8.37
2022-11-30T00:25:52.046Z,8.33
2022-11-30T00:27:54.833Z,8.33
2022-11-30T00:29:57.612Z,8.35
2022-11-30T00:32:00.469Z,8.37
2022-11-30T00:34:03.333Z,8.47
2022-11-30T00:36:08.283Z,8.35
2022-11-30T00:38:11.091Z,8.35
2022-11-30T00:40:14.525Z,8.33
2022-11-30T00:42:18.689Z,8.32
2022-11-30T00:44:21.463Z,8.35
2022-11-30T00:46:24.244Z,8.33
2022-11-30T00:48:27.583Z,8.35
2022-11-30T00:50:30.519Z,8.31
2022-11-30T00:52:33.403Z,8.30
2022-11-30T00:54:36.274Z,8.28
2022-11-30T00:56:39.081Z,8.22
2022-11-30T00:58:43.193Z,8.11
2022-11-30T01:00:46.135Z,8.11
2022-11-30T01:02:48.996Z,8.11
2022-11-30T01:04:51.875Z,8.07
2022-11-30T01:06:54.707Z,8.09
2022-11-30T01:08:57.561Z,8.16
2022-11-30T01:11:07.187Z,8.22
2022-11-30T01:13:12.730Z,8.26
2022-11-30T01:15:17.034Z,8.21
2022-11-30T01:17:19.853Z,8.23
2022-11-30T01:19:22.706Z,8.24
2022-11-30T01:21:27.110Z,8.23
2022-11-30T01:23:29.928Z,8.24
2022-11-30T01:25:32.750Z,8.19
2022-11-30T01:27:35.556Z,8.26
2022-11-30T01:29:38.960Z,8.25
2022-11-30T01:31:43.106Z,8.28
2022-11-30T01:33:50.137Z,8.30
2022-11-30T01:36:00.716Z,8.29
2022-11-30T01:38:03.539Z,8.35
2022-11-30T01:40:07.868Z,8.35
2022-11-30T01:42:15.908Z,8.30
2022-11-30T01:44:49.218Z,8.39
2022-11-30T01:46:56.198Z,8.33
2022-11-30T01:49:04.603Z,8.42
2022-11-30T01:51:08.691Z,8.32
2022-11-30T01:53:12.468Z,8.23
2022-11-30T01:55:19.314Z,8.23
2022-11-30T01:57:26.925Z,8.22
2022-11-30T01:59:31.180Z,8.25
2022-11-30T02:01:34.444Z,8.25
2022-11-30T02:03:46.788Z,8.41
2022-11-30T02:05:50.362Z,8.30
2022-11-30T02:07:53.665Z,8.21
2022-11-30T02:09:56.669Z,8.30
2022-11-30T02:12:00.415Z,8.35
2022-11-30T02:14:19.285Z,8.23
2022-11-30T02:16:28.682Z,8.20
2022-11-30T02:18:37.117Z,8.26
2022-11-30T02:20:56.960Z,8.22
2022-11-30T02:23:40.977Z,8.22
2022-11-30T02:25:53.944Z,8.24
2022-11-30T02:28:13.312Z,8.26
2022-11-30T02:30:19.960Z,8.29
2022-11-30T02:32:26.986Z,8.33
2022-11-30T02:34:32.582Z,8.39
2022-11-30T02:36:36.469Z,8.34
2022-11-30T02:38:40.660Z,8.29
2022-11-30T02:40:43.463Z,8.29
2022-11-30T02:42:46.509Z,8.18
2022-11-30T02:44:52.595Z,8.21
2022-11-30T02:47:06.193Z,8.28
2022-11-30T02:49:14.813Z,8.17
2022-11-30T02:51:21.015Z,8.14
2022-11-30T02:53:23.960Z,8.15
2022-11-30T02:55:29.443Z,8.18
2022-11-30T02:57:32.246Z,8.21
2022-11-30T02:59:35.082Z,8.21
2022-11-30T03:01:38.803Z,8.29
2022-11-30T03:03:43.154Z,8.30
2022-11-30T03:05:45.990Z,8.36
2022-11-30T03:07:48.931Z,8.31
2022-11-30T03:09:52.050Z,8.32
2022-11-30T03:11:54.861Z,8.27
2022-11-30T03:13:57.724Z,8.21
2022-11-30T03:16:07.103Z,8.32
2022-11-30T03:18:10.024Z,8.38
2022-11-30T03:20:14.266Z,8.33
2022-11-30T03:22:17.101Z,8.30
2022-11-30T03:24:19.893Z,8.26
2022-11-30T03:26:22.720Z,8.35
2022-11-30T03:28:25.783Z,8.32
2022-11-30T03:30:28.844Z,8.33
2022-11-30T03:32:31.662Z,8.27
2022-11-30T03:34:34.679Z,8.26
2022-11-30T03:36:38.845Z,8.30
2022-11-30T03:38:41.741Z,8.24
2022-11-30T03:40:44.531Z,8.21
2022-11-30T03:42:47.374Z,8.32
2022-11-30T03:44:50.403Z,8.21
2022-11-30T03:46:53.261Z,8.21
2022-11-30T03:48:56.180Z,8.21
2022-11-30T03:50:59.237Z,8.21
2022-11-30T03:53:03.349Z,8.17
2022-11-30T03:55:07.127Z,8.11
2022-11-30T03:57:09.920Z,8.11
2022-11-30T03:59:12.759Z,8.11
2022-11-30T04:01:17.500Z,8.10
2022-11-30T04:03:20.380Z,8.11
2022-11-30T04:05:23.242Z,8.10
2022-11-30T04:07:26.126Z,8.17
2022-11-30T04:09:30.386Z,8.22
2022-11-30T04:11:33.174Z,8.22
2022-11-30T04:13:37.712Z,8.20
2022-11-30T04:15:40.531Z,8.21
2022-11-30T04:17:43.340Z,8.29
2022-11-30T04:19:46.102Z,8.28
2022-11-30T04:21:48.957Z,8.26
2022-11-30T04:23:51.771Z,8.33
2022-11-30T04:25:55.918Z,8.30
2022-11-30T04:27:58.803Z,8.34
2022-11-30T04:30:01.585Z,8.24
2022-11-30T04:32:04.433Z,8.32
2022-11-30T04:34:07.215Z,8.31
2022-11-30T04:36:18.714Z,8.28
2022-11-30T04:38:21.662Z,8.19
2022-11-30T04:40:24.632Z,8.16
2022-11-30T04:42:28.754Z,8.19
2022-11-30T04:44:31.522Z,8.22
2022-11-30T04:46:34.341Z,8.31
2022-11-30T04:48:37.185Z,8.33
2022-11-30T04:50:40.387Z,8.29
2022-11-30T04:52:43.188Z,8.28
2022-11-30T04:54:46.231Z,8.26
2022-11-30T04:56:49.076Z,8.20
2022-11-30T04:58:53.223Z,8.21
2022-11-30T05:00:56.233Z,8.19
2022-11-30T05:02:59.033Z,8.23
2022-11-30T05:05:01.798Z,8.24
2022-11-30T05:07:04.712Z,8.35
2022-11-30T05:09:07.574Z,8.36
2022-11-30T05:11:10.434Z,8.40
2022-11-30T05:13:13.200Z,8.27
2022-11-30T05:15:17.609Z,8.31
2022-11-30T05:17:20.397Z,8.22
2022-11-30T05:19:23.248Z,8.28
2022-11-30T05:21:26.181Z,8.28
2022-11-30T05:23:29.186Z,8.29
2022-11-30T05:25:31.981Z,8.24
2022-11-30T05:27:35.308Z,8.26
2022-11-30T05:29:38.121Z,8.23
2022-11-30T05:31:42.223Z,8.29
2022-11-30T05:33:45.021Z,8.28
2022-11-30T05:35:47.920Z,8.21
2022-11-30T05:37:50.686Z,8.16
2022-11-30T05:39:53.530Z,8.15
2022-11-30T05:41:56.321Z,8.09
2022-11-30T05:43:59.118Z,8.14
2022-11-30T05:46:02.781Z,8.19
2022-11-30T05:48:07.324Z,8.15
2022-11-30T05:50:10.784Z,8.13
2022-11-30T05:52:13.546Z,8.20
2022-11-30T05:54:16.313Z,8.23
2022-11-30T05:56:21.894Z,8.23
2022-11-30T05:58:24.803Z,8.21
2022-11-30T06:00:27.878Z,8.21
2022-11-30T06:02:30.715Z,8.16
2022-11-30T06:04:35.661Z,8.19
2022-11-30T06:06:38.310Z,8.14
2022-11-30T06:08:41.327Z,8.15
2022-11-30T06:10:44.136Z,8.23
2022-11-30T06:12:47.001Z,8.22
2022-11-30T06:14:50.815Z,8.23
2022-11-30T06:16:53.655Z,8.30
2022-11-30T06:18:56.501Z,8.30
2022-11-30T06:21:02.943Z,8.30
2022-11-30T06:23:06.148Z,8.28
2022-11-30T06:25:09.234Z,8.31
2022-11-30T06:27:11.997Z,8.29
2022-11-30T06:29:14.929Z,8.20
2022-11-30T06:31:17.780Z,8.19
2022-11-30T06:33:24.366Z,8.28
2022-11-30T06:35:27.187Z,8.24
2022-11-30T06:37:34.777Z,8.27
2022-11-30T06:40:04.736Z,8.25
2022-11-30T06:42:00.378Z,8.23
2022-11-30T06:44:03.112Z,8.26
2022-11-30T06:46:07.612Z,8.31
2022-11-30T06:48:10.501Z,8.26
2022-11-30T06:50:15.000Z,8.31
2022-11-30T06:52:23.061Z,8.31
2022-11-30T06:54:27.221Z,8.30
2022-11-30T06:56:30.176Z,8.26
2022-11-30T06:58:32.966Z,8.20
2022-11-30T07:00:36.417Z,8.27
2022-11-30T07:02:39.243Z,8.30
2022-11-30T07:04:42.069Z,8.31
2022-11-30T07:06:45.035Z,8.27
2022-11-30T07:08:47.805Z,8.25
2022-11-30T07:10:51.940Z,8.16
2022-11-30T07:12:54.796Z,8.33
2022-11-30T07:14:57.628Z,8.22
2022-11-30T07:17:04.513Z,8.20
2022-11-30T07:19:07.351Z,8.14
2022-11-30T07:21:11.091Z,8.18
2022-11-30T07:23:31.284Z,8.29
2022-11-30T07:25:51.586Z,8.27
2022-11-30T07:27:56.798Z,8.26
2022-11-30T07:29:59.653Z,8.24
2022-11-30T07:32:04.316Z,8.26
2022-11-30T07:34:09.060Z,8.24
2022-11-30T07:36:12.404Z,8.20
2022-11-30T07:38:15.180Z,8.24
2022-11-30T07:40:18.142Z,8.22
2022-11-30T07:42:22.797Z,8.22
2022-11-30T07:44:27.444Z,8.18
2022-11-30T07:46:31.497Z,8.21
2022-11-30T07:48:35.145Z,8.23
2022-11-30T07:50:37.906Z,8.23
2022-11-30T07:52:41.064Z,8.28
2022-11-30T07:54:43.852Z,8.34
2022-11-30T07:56:46.614Z,8.29
2022-11-30T07:58:50.428Z,8.28
2022-11-30T08:00:54.670Z,8.33
2022-11-30T08:02:57.601Z,8.37
2022-11-30T08:05:00.482Z,8.33
2022-11-30T08:07:03.312Z,8.36
2022-11-30T08:09:07.146Z,8.34
2022-11-30T08:11:12.555Z,8.34
2022-11-30T08:13:15.322Z,8.32
2022-11-30T08:15:20.417Z,8.35
2022-11-30T08:17:25.389Z,8.38
2022-11-30T08:19:28.219Z,8.37
2022-11-30T08:21:32.772Z,8.35
2022-11-30T08:23:38.044Z,8.43
2022-11-30T08:25:40.944Z,8.42
2022-11-30T08:27:43.837Z,8.51
2022-11-30T08:29:46.654Z,8.45
2022-11-30T08:31:49.595Z,8.47
2022-11-30T08:33:58.077Z,8.46
2022-11-30T08:36:07.293Z,8.60
2022-11-30T08:38:10.128Z,8.51
2022-11-30T08:40:13.535Z,8.47
2022-11-30T08:42:16.312Z,8.46
2022-11-30T08:44:19.303Z,8.44
2022-11-30T08:48:46.839Z,8.53
2022-11-30T08:50:51.539Z,8.47
2022-11-30T08:52:55.205Z,8.53
2022-11-30T08:54:57.996Z,8.56
2022-11-30T08:57:00.821Z,8.53
2022-11-30T08:59:03.604Z,8.48
2022-11-30T09:01:08.057Z,8.49
2022-11-30T09:03:10.844Z,8.47
2022-11-30T09:05:14.243Z,8.46
2022-11-30T09:07:19.751Z,8.51
2022-11-30T09:09:23.066Z,8.52
2022-11-30T09:11:27.180Z,8.52
2022-11-30T09:13:29.966Z,8.52
2022-11-30T09:15:33.626Z,8.49
2022-11-30T09:17:37.106Z,8.47
2022-11-30T09:19:40.257Z,8.49
2022-11-30T09:21:48.099Z,8.54
2022-11-30T09:23:56.664Z,8.46
2022-11-30T09:26:00.770Z,8.62
2022-11-30T09:28:06.795Z,8.53
2022-11-30T09:30:12.830Z,8.37
2022-11-30T09:32:15.612Z,8.42
2022-11-30T09:34:18.536Z,8.46
2022-11-30T09:36:23.729Z,8.43
2022-11-30T09:38:26.922Z,8.51
2022-11-30T09:40:35.490Z,8.51
2022-11-30T09:42:58.357Z,8.45
2022-11-30T09:45:09.593Z,8.44
2022-11-30T09:47:27.810Z,8.50
2022-11-30T09:49:36.989Z,8.50
2022-11-30T09:51:45.683Z,8.62
2022-11-30T09:53:53.972Z,8.69
2022-11-30T09:56:01.006Z,8.68
2022-11-30T09:58:06.200Z,8.70
2022-11-30T10:00:15.259Z,8.73
2022-11-30T10:02:19.419Z,8.68
2022-11-30T10:04:24.317Z,8.67
2022-11-30T10:06:30.769Z,8.67
2022-11-30T10:08:50.684Z,8.69
2022-11-30T10:11:11.477Z,8.60
2022-11-30T10:13:27.270Z,8.69
2022-11-30T10:15:42.323Z,8.71
2022-11-30T10:17:53.909Z,8.81
2022-11-30T10:20:09.414Z,8.66
2022-11-30T10:22:19.447Z,8.63
2022-11-30T10:24:36.758Z,8.73
2022-11-30T10:26:51.543Z,8.66
2022-11-30T10:28:55.714Z,8.81
2022-11-30T10:31:01.020Z,8.76
2022-11-30T10:33:11.841Z,8.72
2022-11-30T10:35:24.222Z,8.87
2022-11-30T10:37:34.520Z,8.94
2022-11-30T10:39:44.089Z,8.90
2022-11-30T10:41:51.998Z,9.04
2022-11-30T10:44:02.131Z,9.06
2022-11-30T10:46:05.788Z,9.06
2022-11-30T10:48:13.290Z,9.11
2022-11-30T10:50:18.396Z,9.11
2022-11-30T10:52:27.435Z,9.10
2022-11-30T10:54:31.857Z,9.19
2022-11-30T10:56:34.659Z,9.12
2022-11-30T10:58:42.244Z,9.18
2022-11-30T11:00:53.904Z,9.19
2022-11-30T11:02:57.042Z,9.11
2022-11-30T11:05:09.432Z,9.14
2022-11-30T11:07:15.284Z,9.15
2022-11-30T11:09:32.580Z,9.22
2022-11-30T11:11:38.806Z,9.23
2022-11-30T11:13:44.472Z,9.13
2022-11-30T11:15:59.842Z,9.14
2022-11-30T11:18:22.673Z,9.13
2022-11-30T11:20:34.796Z,9.26
2022-11-30T11:22:38.745Z,9.30
2022-11-30T11:24:41.660Z,9.30
2022-11-30T11:26:50.431Z,9.35
2022-11-30T11:28:57.215Z,9.57
2022-11-30T11:31:00.128Z,9.46
2022-11-30T11:33:04.918Z,9.40
2022-11-30T11:35:33.842Z,9.30
2022-11-30T11:37:41.024Z,9.31
2022-11-30T11:39:43.914Z,9.33
2022-11-30T11:41:46.935Z,9.36
2022-11-30T11:44:06.828Z,9.36
2022-11-30T11:46:13.480Z,9.35
2022-11-30T11:48:30.353Z,9.39
2022-11-30T11:51:05.680Z,9.31
2022-11-30T11:53:25.052Z,9.32
2022-11-30T11:55:28.151Z,9.28
2022-11-30T11:57:38.658Z,9.35
2022-11-30T11:59:50.585Z,9.30
2022-11-30T12:02:01.606Z,9.36
2022-11-30T12:04:18.297Z,9.44
2022-11-30T12:06:22.894Z,9.42
2022-11-30T12:08:31.886Z,9.47
2022-11-30T12:10:57.408Z,9.54
2022-11-30T12:13:00.771Z,9.52
2022-11-30T12:15:09.849Z,9.42
2022-11-30T12:17:33.819Z,9.50
2022-11-30T12:19:47.551Z,9.41
2022-11-30T12:21:58.679Z,9.45
2022-11-30T12:24:29.199Z,9.48
2022-11-30T12:26:39.197Z,9.42
2022-11-30T12:29:05.178Z,9.42
2022-11-30T12:31:14.927Z,9.48
2022-11-30T12:33:34.866Z,9.53
2022-11-30T12:35:45.766Z,9.46
2022-11-30T12:38:01.846Z,9.51
2022-11-30T12:40:19.088Z,9.57
2022-11-30T12:42:28.804Z,9.62
2022-11-30T12:44:47.560Z,9.65
2022-11-30T12:46:58.978Z,9.71
2022-11-30T12:49:17.648Z,9.77
2022-11-30T12:51:29.753Z,9.73
2022-11-30T12:53:39.165Z,9.82
2022-11-30T12:55:49.011Z,9.71
2022-11-30T12:58:02.849Z,9.67
2022-11-30T13:00:14.695Z,9.65
2022-11-30T13:02:41.633Z,9.69
2022-11-30T13:04:49.768Z,9.59
2022-11-30T13:07:00.144Z,9.63
2022-11-30T13:09:07.906Z,9.75
2022-11-30T13:11:17.416Z,9.73
2022-11-30T13:13:25.555Z,9.65
2022-11-30T13:15:30.989Z,9.58
2022-11-30T13:17:36.697Z,9.53
2022-11-30T13:19:54.420Z,9.56
2022-11-30T13:22:03.588Z,9.59
2022-11-30T13:24:12.417Z,9.59
2022-11-30T13:26:24.859Z,9.59
2022-11-30T13:28:40.297Z,9.65
2022-11-30T13:30:45.425Z,9.52
2022-11-30T13:32:57.830Z,9.55
2022-11-30T13:35:38.748Z,9.66
2022-11-30T13:37:41.575Z,9.55
2022-11-30T13:39:55.202Z,9.63
2022-11-30T13:42:25.934Z,9.59
2022-11-30T13:44:34.032Z,9.59
2022-11-30T13:46:36.939Z,9.59
2022-11-30T13:48:42.848Z,9.56
2022-11-30T13:50:49.927Z,9.59
2022-11-30T13:53:18.889Z,9.61
2022-11-30T13:55:51.850Z,9.53
2022-11-30T13:58:22.878Z,9.52
2022-11-30T14:00:46.189Z,9.50
2022-11-30T14:02:54.156Z,9.55
2022-11-30T14:05:21.463Z,9.62
2022-11-30T14:07:38.351Z,9.56
2022-11-30T14:10:00.043Z,9.50
2022-11-30T14:12:37.498Z,9.61
2022-11-30T14:14:47.812Z,9.63
2022-11-30T14:16:50.865Z,9.59
2022-11-30T14:18:54.040Z,9.52
2022-11-30T14:21:02.563Z,9.63
2022-11-30T14:23:07.229Z,9.60
2022-11-30T14:25:14.292Z,9.54
2022-11-30T14:27:21.139Z,9.51
2022-11-30T14:29:28.654Z,9.50
2022-11-30T14:31:35.405Z,9.42
2022-11-30T14:33:45.660Z,9.43
2022-11-30T14:35:54.340Z,9.44
2022-11-30T14:38:00.167Z,9.48
2022-11-30T14:40:05.028Z,9.48
2022-11-30T14:42:21.088Z,9.61
2022-11-30T14:44:24.020Z,9.56
2022-11-30T14:46:27.767Z,9.51
2022-11-30T14:48:30.602Z,9.46
2022-11-30T14:50:34.128Z,9.40
2022-11-30T14:52:50.706Z,9.43
2022-11-30T14:55:05.181Z,9.44
2022-11-30T14:57:17.116Z,9.47
2022-11-30T14:59:33.922Z,9.45
2022-11-30T15:01:39.663Z,9.47
2022-11-30T15:03:42.582Z,9.50
2022-11-30T15:05:45.447Z,9.47
2022-11-30T15:07:50.069Z,9.47
2022-11-30T15:09:57.096Z,9.35
2022-11-30T15:12:01.327Z,9.44
2022-11-30T15:14:10.514Z,9.46
2022-11-30T15:16:20.052Z,9.53
2022-11-30T15:18:24.052Z,9.44
2022-11-30T15:20:30.743Z,9.48
2022-11-30T15:22:35.680Z,9.49
2022-11-30T15:24:38.957Z,9.39
2022-11-30T15:26:54.127Z,9.37
2022-11-30T15:29:02.065Z,9.40
2022-11-30T15:31:08.706Z,9.42
2022-11-30T15:33:19.290Z,9.40
2022-11-30T15:35:30.729Z,9.53
2022-11-30T15:37:47.788Z,9.37
2022-11-30T15:39:54.307Z,9.39
2022-11-30T15:41:59.137Z,9.35
2022-11-30T15:44:03.591Z,9.49
2022-11-30T15:46:07.426Z,9.41
2022-11-30T15:48:29.562Z,9.38
2022-11-30T15:50:38.276Z,9.36
2022-11-30T15:52:45.625Z,9.31
2022-11-30T15:54:52.614Z,9.25
2022-11-30T15:56:58.760Z,9.32
2022-11-30T15:59:05.641Z,9.41
2022-11-30T16:01:11.792Z,9.32
2022-11-30T16:03:14.926Z,9.26
2022-11-30T16:05:26.877Z,9.33
2022-11-30T16:07:32.135Z,9.24
2022-11-30T16:09:35.122Z,9.32
2022-11-30T16:11:38.182Z,9.27
2022-11-30T16:13:42.152Z,9.24
2022-11-30T16:15:47.857Z,9.24
2022-11-30T16:17:51.569Z,9.31
2022-11-30T16:19:56.184Z,9.31
2022-11-30T16:21:58.984Z,9.32
2022-11-30T16:24:01.884Z,9.31
2022-11-30T16:26:07.963Z,9.28
2022-11-30T16:28:17.896Z,9.19
2022-11-30T16:30:23.863Z,9.21
2022-11-30T16:32:28.024Z,9.14
2022-11-30T16:34:31.848Z,9.20
2022-11-30T16:36:37.892Z,9.21
2022-11-30T16:38:40.664Z,9.15
2022-11-30T16:40:43.526Z,9.15
2022-11-30T16:42:46.501Z,9.18
2022-11-30T16:44:49.305Z,9.21
2022-11-30T16:46:53.922Z,9.14
2022-11-30T16:48:58.050Z,9.29
2022-11-30T16:51:00.826Z,9.25
2022-11-30T16:53:04.537Z,9.15
2022-11-30T16:55:14.203Z,9.14
2022-11-30T16:57:16.962Z,9.12
2022-11-30T16:59:19.809Z,9.25
2022-11-30T17:01:33.207Z,9.16
2022-11-30T17:03:38.501Z,9.09
2022-11-30T17:05:42.653Z,9.13
2022-11-30T17:07:45.556Z,9.16
2022-11-30T17:09:48.427Z,9.15
2022-11-30T17:11:51.936Z,9.03
2022-11-30T17:13:54.721Z,9.14
2022-11-30T17:15:57.593Z,8.99
2022-11-30T17:18:00.596Z,8.97
2022-11-30T17:20:03.427Z,8.95
2022-11-30T17:22:07.572Z,9.02
2022-11-30T17:24:10.405Z,9.13
2022-11-30T17:26:14.212Z,9.05
2022-11-30T17:28:16.989Z,9.05
2022-11-30T17:30:22.127Z,8.93
2022-11-30T17:32:24.934Z,8.98
2022-11-30T17:34:27.756Z,8.95
2022-11-30T17:36:30.852Z,8.94
2022-11-30T17:38:36.315Z,9.00
2022-11-30T17:40:41.854Z,9.09
2022-11-30T17:42:45.182Z,9.09
2022-11-30T17:44:48.176Z,9.13
2022-11-30T17:46:51.400Z,9.08
2022-11-30T17:48:54.370Z,9.06
2022-11-30T17:50:57.223Z,9.08
2022-11-30T17:52:59.998Z,9.20
2022-11-30T17:55:04.158Z,9.10
2022-11-30T17:57:07.029Z,9.17
2022-11-30T17:59:09.864Z,9.11
2022-11-30T18:01:16.932Z,9.04
2022-11-30T18:03:20.016Z,8.99
2022-11-30T18:05:22.889Z,8.98
2022-11-30T18:07:25.992Z,8.90
2022-11-30T18:09:28.831Z,8.91
2022-11-30T18:11:33.558Z,8.91
2022-11-30T18:13:36.437Z,8.99
2022-11-30T18:15:39.215Z,8.97
2022-11-30T18:17:42.050Z,9.05
2022-11-30T18:19:44.877Z,9.02
2022-11-30T18:21:47.827Z,9.13
2022-11-30T18:23:51.420Z,8.96
2022-11-30T18:25:54.263Z,8.97
2022-11-30T18:27:58.454Z,9.00
2022-11-30T18:30:03.787Z,8.93
2022-11-30T18:32:10.430Z,8.77
2022-11-30T18:34:13.241Z,9.02
2022-11-30T18:36:16.139Z,8.82
2022-11-30T18:38:18.996Z,8.86
2022-11-30T18:40:21.800Z,8.69
2022-11-30T18:42:24.656Z,8.84
2022-11-30T18:44:28.849Z,8.75
2022-11-30T18:46:31.710Z,8.74
2022-11-30T18:48:34.892Z,8.83
2022-11-30T18:50:38.260Z,8.77
2022-11-30T18:52:41.043Z,8.86
2022-11-30T18:54:43.852Z,8.65
2022-11-30T18:56:46.609Z,8.50
2022-11-30T18:58:49.870Z,8.49
2022-11-30T19:00:54.239Z,8.49
2022-11-30T19:02:57.217Z,8.69
2022-11-30T19:05:00.010Z,8.65
2022-11-30T19:07:02.856Z,8.60
2022-11-30T19:09:09.419Z,8.56
2022-11-30T19:11:12.334Z,8.47
2022-11-30T19:13:15.161Z,8.51
2022-11-30T19:15:18.141Z,8.51
2022-11-30T19:17:22.364Z,8.63
2022-11-30T19:19:25.239Z,8.64
2022-11-30T19:21:28.158Z,8.53
2022-11-30T19:23:31.012Z,8.44
2022-11-30T19:25:33.968Z,8.44
2022-11-30T19:27:36.817Z,8.50
2022-11-30T19:29:39.552Z,8.56
2022-11-30T19:31:42.375Z,8.53
2022-11-30T19:33:47.854Z,8.54
2022-11-30T19:35:50.705Z,8.49
2022-11-30T19:37:53.501Z,8.36
2022-11-30T19:39:56.241Z,8.29
2022-11-30T19:41:59.139Z,8.29
2022-11-30T19:44:04.038Z,8.33
2022-11-30T19:46:08.803Z,8.36
2022-11-30T19:48:11.733Z,8.51
2022-11-30T19:50:16.030Z,8.35
2022-11-30T19:52:20.337Z,8.39
2022-11-30T19:54:23.214Z,8.23
2022-11-30T19:56:27.537Z,8.31
2022-11-30T19:58:31.610Z,8.25
2022-11-30T20:00:34.384Z,8.36
2022-11-30T20:02:37.351Z,8.27
2022-11-30T20:04:40.431Z,8.27
2022-11-30T20:06:44.617Z,8.26
2022-11-30T20:08:47.738Z,8.18
2022-11-30T20:10:50.632Z,8.24
2022-11-30T20:12:53.348Z,8.15
2022-11-30T20:14:56.538Z,8.32
2022-11-30T20:16:59.672Z,8.28
2022-11-30T20:19:03.538Z,8.27
2022-11-30T20:21:14.026Z,8.19
2022-11-30T20:23:18.170Z,8.16
2022-11-30T20:25:21.126Z,7.92
2022-11-30T20:27:24.849Z,8.08
2022-11-30T20:29:27.653Z,7.98
2022-11-30T20:31:32.614Z,8.09
2022-11-30T20:33:35.295Z,8.12
2022-11-30T20:35:38.161Z,7.91
2022-11-30T20:37:40.970Z,7.94
2022-11-30T20:39:46.231Z,7.95
2022-11-30T20:41:49.225Z,8.02
2022-11-30T20:43:52.580Z,8.06
2022-11-30T20:45:55.715Z,8.04
2022-11-30T20:47:58.609Z,8.03
2022-11-30T20:50:01.465Z,7.99
2022-11-30T20:52:04.799Z,8.06
2022-11-30T20:54:08.455Z,8.12
2022-11-30T20:56:13.442Z,8.05
2022-11-30T20:58:16.464Z,7.98
2022-11-30T21:00:19.950Z,8.01
2022-11-30T21:02:22.831Z,8.07
2022-11-30T21:04:26.819Z,8.08
2022-11-30T21:06:30.181Z,8.02
2022-11-30T21:08:33.510Z,8.01
2022-11-30T21:10:39.158Z,8.05
2022-11-30T21:12:43.410Z,8.10
2022-11-30T21:14:47.263Z,8.13
2022-11-30T21:16:50.462Z,8.16
2022-11-30T21:18:53.236Z,8.15
2022-11-30T21:21:02.383Z,8.18
2022-11-30T21:23:05.245Z,8.13
2022-11-30T21:25:08.859Z,8.14
2022-11-30T21:27:11.873Z,8.11
2022-11-30T21:29:17.953Z,8.12
2022-11-30T21:31:21.315Z,8.13
2022-11-30T21:33:24.322Z,8.22
2022-11-30T21:35:27.123Z,8.26
2022-11-30T21:37:30.915Z,8.17
2022-11-30T21:39:35.097Z,8.19
2022-11-30T21:41:39.529Z,8.20
2022-11-30T21:43:43.064Z,8.15
2022-11-30T21:45:57.318Z,8.12
2022-11-30T21:48:00.183Z,8.09
2022-11-30T21:50:03.050Z,8.15
2022-11-30T21:52:05.877Z,8.15
2022-11-30T21:54:12.334Z,8.13
2022-11-30T21:56:17.365Z,8.26
2022-11-30T21:58:20.725Z,8.16
2022-11-30T22:00:23.583Z,8.15
2022-11-30T22:02:27.842Z,8.14
2022-11-30T22:04:30.690Z,8.04
2022-11-30T22:06:36.482Z,8.03
2022-11-30T22:08:41.007Z,8.04
2022-11-30T22:10:44.027Z,8.08
2022-11-30T22:12:46.847Z,8.01
2022-11-30T22:14:49.581Z,7.86
2022-11-30T22:16:52.903Z,7.98
2022-11-30T22:18:58.184Z,7.76
2022-11-30T22:21:05.608Z,7.73
2022-11-30T22:23:08.432Z,7.65
2022-11-30T22:25:11.286Z,7.64
2022-11-30T22:27:14.033Z,7.69
2022-11-30T22:29:18.559Z,7.73
2022-11-30T22:31:23.306Z,7.66
2022-11-30T22:33:26.180Z,7.64
2022-11-30T22:35:30.382Z,7.61
2022-11-30T22:37:34.504Z,7.57
2022-11-30T22:39:37.263Z,7.61
2022-11-30T22:41:41.363Z,7.63
2022-11-30T22:43:46.069Z,7.61
2022-11-30T22:45:49.305Z,7.52
2022-11-30T22:47:52.234Z,7.50
2022-11-30T22:49:55.134Z,7.48
2022-11-30T22:51:59.367Z,7.49
2022-11-30T22:54:03.241Z,7.48
2022-11-30T22:56:08.611Z,7.53
2022-11-30T22:58:11.486Z,7.52
2022-11-30T23:00:15.399Z,7.52
2022-11-30T23:02:18.264Z,7.56
2022-11-30T23:04:22.876Z,7.69
2022-11-30T23:06:25.839Z,7.56
2022-11-30T23:08:31.011Z,7.46
2022-11-30T23:10:33.768Z,7.44
2022-11-30T23:12:58.616Z,7.40
2022-11-30T23:14:59.335Z,7.40
2022-11-30T23:17:02.093Z,7.41
2022-11-30T23:19:05.719Z,7.34
2022-11-30T23:21:11.876Z,7.33
2022-11-30T23:23:14.717Z,7.30
2022-11-30T23:25:18.860Z,7.33
2022-11-30T23:27:21.612Z,7.33
2022-11-30T23:29:24.397Z,7.38
2022-11-30T23:31:33.891Z,7.40
2022-11-30T23:33:39.346Z,7.38
2022-11-30T23:35:44.313Z,7.34
2022-11-30T23:37:48.318Z,7.34
2022-11-30T23:39:51.355Z,7.33
2022-11-30T23:41:56.003Z,7.44
2022-11-30T23:43:58.800Z,7.39
2022-11-30T23:46:02.374Z,7.28
2022-11-30T23:48:06.395Z,7.27
2022-11-30T23:50:10.198Z,7.38
2022-11-30T23:52:12.961Z,7.28
2022-11-30T23:54:15.776Z,7.31
2022-11-30T23:56:20.252Z,7.39
2022-11-30T23:58:25.251Z,7.34
